sensor_id;sensor_type;location;lat;lon;timestamp;pressure;altitude;pressure_sealevel;temperature;humidity
53340;BME280;46212;50.258;19.062;2023-03-25T00:01:57;97431.16;;;12.84;81.64
53340;BME280;46212;50.258;19.062;2023-03-25T00:04:22;97433.69;;;12.93;81.07
53340;BME280;46212;50.258;19.062;2023-03-25T00:06:53;97426.63;;;12.87;81.46
53340;BME280;46212;50.258;19.062;2023-03-25T00:09:20;97438.47;;;12.87;81.61
53340;BME280;46212;50.258;19.062;2023-03-25T00:11:45;97431.34;;;12.75;81.97
53340;BME280;46212;50.258;19.062;2023-03-25T00:14:13;97420.75;;;12.68;82.21
53340;BME280;46212;50.258;19.062;2023-03-25T00:16:41;97417.75;;;12.71;82.39
53340;BME280;46212;50.258;19.062;2023-03-25T00:19:06;97422.75;;;12.62;82.51
53340;BME280;46212;50.258;19.062;2023-03-25T00:21:33;97430.00;;;12.48;83.03
53340;BME280;46212;50.258;19.062;2023-03-25T00:23:59;97432.25;;;12.50;83.46
53340;BME280;46212;50.258;19.062;2023-03-25T00:26:26;97438.31;;;12.54;83.33
53340;BME280;46212;50.258;19.062;2023-03-25T00:28:54;97436.78;;;12.47;83.78
53340;BME280;46212;50.258;19.062;2023-03-25T00:31:20;97427.50;;;12.56;83.30
53340;BME280;46212;50.258;19.062;2023-03-25T00:33:46;97439.31;;;12.56;83.12
53340;BME280;46212;50.258;19.062;2023-03-25T00:36:11;97437.06;;;12.49;83.61
53340;BME280;46212;50.258;19.062;2023-03-25T00:38:39;97435.53;;;12.48;83.66
53340;BME280;46212;50.258;19.062;2023-03-25T00:41:15;97427.88;;;12.27;84.36
53340;BME280;46212;50.258;19.062;2023-03-25T00:43:47;97424.13;;;12.30;84.60
53340;BME280;46212;50.258;19.062;2023-03-25T00:46:13;97426.34;;;12.20;85.22
53340;BME280;46212;50.258;19.062;2023-03-25T00:48:39;97424.84;;;12.24;84.99
53340;BME280;46212;50.258;19.062;2023-03-25T00:51:06;97431.16;;;12.31;84.80
53340;BME280;46212;50.258;19.062;2023-03-25T00:53:34;97429.44;;;12.39;84.86
53340;BME280;46212;50.258;19.062;2023-03-25T00:56:01;97437.97;;;12.35;84.87
53340;BME280;46212;50.258;19.062;2023-03-25T00:58:27;97438.22;;;12.32;85.05
53340;BME280;46212;50.258;19.062;2023-03-25T01:00:52;97434.66;;;12.25;85.51
53340;BME280;46212;50.258;19.062;2023-03-25T01:03:26;97424.63;;;12.34;85.14
53340;BME280;46212;50.258;19.062;2023-03-25T01:05:53;97428.88;;;12.23;85.63
53340;BME280;46212;50.258;19.062;2023-03-25T01:08:22;97427.09;;;12.20;85.49
53340;BME280;46212;50.258;19.062;2023-03-25T01:10:51;97431.19;;;12.36;85.36
53340;BME280;46212;50.258;19.062;2023-03-25T01:13:18;97432.13;;;12.27;85.25
53340;BME280;46212;50.258;19.062;2023-03-25T01:15:43;97424.16;;;12.41;85.19
53340;BME280;46212;50.258;19.062;2023-03-25T01:18:08;97431.47;;;12.44;84.88
53340;BME280;46212;50.258;19.062;2023-03-25T01:20:34;97433.22;;;12.41;84.89
53340;BME280;46212;50.258;19.062;2023-03-25T01:22:59;97434.53;;;12.46;84.80
53340;BME280;46212;50.258;19.062;2023-03-25T01:25:25;97431.22;;;12.42;84.89
53340;BME280;46212;50.258;19.062;2023-03-25T01:27:50;97436.53;;;12.45;84.60
53340;BME280;46212;50.258;19.062;2023-03-25T01:30:16;97431.69;;;12.40;85.06
53340;BME280;46212;50.258;19.062;2023-03-25T01:32:41;97442.00;;;12.34;85.06
53340;BME280;46212;50.258;19.062;2023-03-25T01:35:07;97436.41;;;12.23;84.47
53340;BME280;46212;50.258;19.062;2023-03-25T01:37:32;97430.59;;;12.21;83.86
53340;BME280;46212;50.258;19.062;2023-03-25T01:40:01;97434.06;;;12.10;83.12
53340;BME280;46212;50.258;19.062;2023-03-25T01:42:29;97424.34;;;12.26;82.34
53340;BME280;46212;50.258;19.062;2023-03-25T01:47:40;97425.78;;;12.10;81.54
53340;BME280;46212;50.258;19.062;2023-03-25T01:50:07;97430.66;;;12.27;79.84
53340;BME280;46212;50.258;19.062;2023-03-25T01:52:35;97424.34;;;12.26;79.63
53340;BME280;46212;50.258;19.062;2023-03-25T01:55:00;97430.00;;;12.06;79.87
53340;BME280;46212;50.258;19.062;2023-03-25T01:57:27;97428.78;;;12.12;76.03
53340;BME280;46212;50.258;19.062;2023-03-25T01:59:55;97423.47;;;12.03;74.85
53340;BME280;46212;50.258;19.062;2023-03-25T02:02:22;97403.50;;;11.88;71.60
53340;BME280;46212;50.258;19.062;2023-03-25T02:05:11;97403.56;;;11.99;70.25
53340;BME280;46212;50.258;19.062;2023-03-25T02:07:43;97420.38;;;11.96;68.77
53340;BME280;46212;50.258;19.062;2023-03-25T02:10:12;97424.03;;;11.76;71.09
53340;BME280;46212;50.258;19.062;2023-03-25T02:12:38;97445.03;;;11.62;72.50
53340;BME280;46212;50.258;19.062;2023-03-25T02:15:07;97444.59;;;11.69;70.16
53340;BME280;46212;50.258;19.062;2023-03-25T02:28:37;97463.16;;;11.38;71.42
53340;BME280;46212;50.258;19.062;2023-03-25T02:39:46;97447.94;;;11.22;71.55
53340;BME280;46212;50.258;19.062;2023-03-25T02:42:24;97446.66;;;11.23;70.53
53340;BME280;46212;50.258;19.062;2023-03-25T02:45:11;97440.97;;;11.32;70.41
53340;BME280;46212;50.258;19.062;2023-03-25T02:47:48;97450.78;;;11.33;70.24
53340;BME280;46212;50.258;19.062;2023-03-25T02:50:28;97452.53;;;11.31;70.82
53340;BME280;46212;50.258;19.062;2023-03-25T02:52:58;97460.47;;;11.49;69.99
53340;BME280;46212;50.258;19.062;2023-03-25T02:55:26;97454.59;;;11.36;70.42
53340;BME280;46212;50.258;19.062;2023-03-25T02:57:55;97453.88;;;11.41;70.08
53340;BME280;46212;50.258;19.062;2023-03-25T03:00:37;97465.63;;;11.36;70.45
53340;BME280;46212;50.258;19.062;2023-03-25T03:03:04;97467.53;;;11.24;70.57
53340;BME280;46212;50.258;19.062;2023-03-25T03:05:35;97471.66;;;11.08;71.58
53340;BME280;46212;50.258;19.062;2023-03-25T03:24:51;97494.03;;;11.10;71.85
53340;BME280;46212;50.258;19.062;2023-03-25T03:27:30;97497.22;;;11.03;72.17
53340;BME280;46212;50.258;19.062;2023-03-25T03:35:59;97494.38;;;10.98;73.10
53340;BME280;46212;50.258;19.062;2023-03-25T03:38:48;97495.28;;;11.09;72.20
53340;BME280;46212;50.258;19.062;2023-03-25T03:41:18;97487.13;;;11.00;72.93
53340;BME280;46212;50.258;19.062;2023-03-25T03:46:23;97485.00;;;10.90;73.44
53340;BME280;46212;50.258;19.062;2023-03-25T03:48:54;97481.75;;;10.91;74.01
53340;BME280;46212;50.258;19.062;2023-03-25T03:51:26;97485.41;;;11.03;73.58
53340;BME280;46212;50.258;19.062;2023-03-25T03:53:55;97481.69;;;10.86;74.02
53340;BME280;46212;50.258;19.062;2023-03-25T03:56:31;97478.59;;;10.78;74.57
53340;BME280;46212;50.258;19.062;2023-03-25T03:59:03;97482.88;;;10.79;74.44
53340;BME280;46212;50.258;19.062;2023-03-25T04:01:43;97490.94;;;10.83;74.01
53340;BME280;46212;50.258;19.062;2023-03-25T04:04:17;97484.47;;;10.86;74.40
53340;BME280;46212;50.258;19.062;2023-03-25T04:07:01;97479.03;;;10.71;74.74
53340;BME280;46212;50.258;19.062;2023-03-25T04:10:17;97491.31;;;10.90;74.31
53340;BME280;46212;50.258;19.062;2023-03-25T04:12:29;97480.94;;;10.85;73.98
53340;BME280;46212;50.258;19.062;2023-03-25T04:14:59;97494.28;;;10.87;73.97
53340;BME280;46212;50.258;19.062;2023-03-25T04:17:25;97484.75;;;10.68;74.67
53340;BME280;46212;50.258;19.062;2023-03-25T04:19:55;97483.00;;;10.70;74.74
53340;BME280;46212;50.258;19.062;2023-03-25T04:22:20;97478.41;;;10.61;74.81
53340;BME280;46212;50.258;19.062;2023-03-25T04:24:46;97481.75;;;10.51;75.21
53340;BME280;46212;50.258;19.062;2023-03-25T04:27:16;97481.84;;;10.56;75.33
53340;BME280;46212;50.258;19.062;2023-03-25T04:29:43;97487.66;;;10.58;75.20
53340;BME280;46212;50.258;19.062;2023-03-25T04:32:10;97484.44;;;10.65;74.97
53340;BME280;46212;50.258;19.062;2023-03-25T04:34:35;97504.91;;;10.74;74.32
53340;BME280;46212;50.258;19.062;2023-03-25T04:37:01;97496.00;;;10.64;74.86
53340;BME280;46212;50.258;19.062;2023-03-25T04:39:27;97502.31;;;10.50;75.76
53340;BME280;46212;50.258;19.062;2023-03-25T04:41:53;97496.16;;;10.40;75.93
53340;BME280;46212;50.258;19.062;2023-03-25T04:44:20;97511.31;;;10.45;75.82
53340;BME280;46212;50.258;19.062;2023-03-25T04:46:47;97517.28;;;10.43;76.03
53340;BME280;46212;50.258;19.062;2023-03-25T04:49:22;97517.28;;;10.43;75.95
53340;BME280;46212;50.258;19.062;2023-03-25T04:51:50;97509.97;;;10.40;75.92
53340;BME280;46212;50.258;19.062;2023-03-25T04:54:17;97506.56;;;10.31;76.54
53340;BME280;46212;50.258;19.062;2023-03-25T04:56:43;97507.72;;;10.39;76.22
53340;BME280;46212;50.258;19.062;2023-03-25T04:59:08;97509.75;;;10.24;76.56
53340;BME280;46212;50.258;19.062;2023-03-25T05:01:35;97518.75;;;10.39;76.36
53340;BME280;46212;50.258;19.062;2023-03-25T05:04:03;97524.47;;;10.35;76.44
53340;BME280;46212;50.258;19.062;2023-03-25T05:06:31;97529.59;;;10.28;76.73
53340;BME280;46212;50.258;19.062;2023-03-25T05:08:57;97519.00;;;10.21;77.11
53340;BME280;46212;50.258;19.062;2023-03-25T05:11:24;97512.09;;;10.31;77.23
53340;BME280;46212;50.258;19.062;2023-03-25T05:13:49;97513.91;;;10.34;77.19
53340;BME280;46212;50.258;19.062;2023-03-25T05:16:15;97507.50;;;10.42;76.67
53340;BME280;46212;50.258;19.062;2023-03-25T05:18:40;97512.41;;;10.18;77.82
53340;BME280;46212;50.258;19.062;2023-03-25T05:21:06;97513.41;;;10.35;76.99
53340;BME280;46212;50.258;19.062;2023-03-25T05:23:31;97523.50;;;10.38;76.91
53340;BME280;46212;50.258;19.062;2023-03-25T05:25:57;97524.47;;;10.35;77.18
53340;BME280;46212;50.258;19.062;2023-03-25T05:28:23;97526.34;;;10.44;76.66
53340;BME280;46212;50.258;19.062;2023-03-25T05:30:48;97529.38;;;10.46;76.63
53340;BME280;46212;50.258;19.062;2023-03-25T05:33:15;97525.88;;;10.45;76.27
53340;BME280;46212;50.258;19.062;2023-03-25T05:35:42;97525.94;;;10.51;76.24
53340;BME280;46212;50.258;19.062;2023-03-25T05:38:08;97523.44;;;10.53;76.28
53340;BME280;46212;50.258;19.062;2023-03-25T05:40:36;97531.81;;;10.58;76.25
53340;BME280;46212;50.258;19.062;2023-03-25T05:43:02;97534.09;;;10.60;76.10
53340;BME280;46212;50.258;19.062;2023-03-25T05:45:28;97532.03;;;10.55;76.47
53340;BME280;46212;50.258;19.062;2023-03-25T05:47:54;97543.47;;;10.48;76.62
53340;BME280;46212;50.258;19.062;2023-03-25T05:50:19;97533.88;;;10.63;75.89
53340;BME280;46212;50.258;19.062;2023-03-25T05:52:46;97539.91;;;10.62;75.85
53340;BME280;46212;50.258;19.062;2023-03-25T05:55:18;97530.16;;;10.66;75.07
53340;BME280;46212;50.258;19.062;2023-03-25T05:57:44;97537.53;;;10.75;74.80
53340;BME280;46212;50.258;19.062;2023-03-25T06:00:11;97537.06;;;10.77;74.92
53340;BME280;46212;50.258;19.062;2023-03-25T06:02:38;97546.94;;;10.83;74.70
53340;BME280;46212;50.258;19.062;2023-03-25T06:05:07;97534.53;;;10.93;74.43
53340;BME280;46212;50.258;19.062;2023-03-25T06:07:36;97540.06;;;10.93;74.13
53340;BME280;46212;50.258;19.062;2023-03-25T06:10:03;97546.88;;;10.98;73.99
53340;BME280;46212;50.258;19.062;2023-03-25T06:12:29;97542.81;;;10.93;73.90
53340;BME280;46212;50.258;19.062;2023-03-25T06:14:58;97532.22;;;10.92;74.12
53340;BME280;46212;50.258;19.062;2023-03-25T06:17:24;97550.97;;;11.02;73.78
53340;BME280;46212;50.258;19.062;2023-03-25T06:19:52;97550.81;;;11.11;73.17
53340;BME280;46212;50.258;19.062;2023-03-25T06:22:18;97559.72;;;11.01;73.69
53340;BME280;46212;50.258;19.062;2023-03-25T06:24:46;97554.91;;;10.96;73.97
53340;BME280;46212;50.258;19.062;2023-03-25T06:27:16;97555.50;;;11.05;74.41
53340;BME280;46212;50.258;19.062;2023-03-25T06:29:42;97562.75;;;11.23;73.35
53340;BME280;46212;50.258;19.062;2023-03-25T06:32:09;97567.59;;;11.28;72.03
53340;BME280;46212;50.258;19.062;2023-03-25T06:34:36;97567.59;;;11.28;72.67
53340;BME280;46212;50.258;19.062;2023-03-25T06:37:01;97558.38;;;11.37;72.12
53340;BME280;46212;50.258;19.062;2023-03-25T06:39:27;97567.84;;;11.50;72.02
53340;BME280;46212;50.258;19.062;2023-03-25T06:41:56;97568.97;;;11.64;71.15
53340;BME280;46212;50.258;19.062;2023-03-25T06:44:22;97572.59;;;11.70;70.22
53340;BME280;46212;50.258;19.062;2023-03-25T06:46:47;97575.72;;;11.83;69.81
53340;BME280;46212;50.258;19.062;2023-03-25T06:49:12;97574.03;;;11.91;68.85
53340;BME280;46212;50.258;19.062;2023-03-25T06:51:38;97572.56;;;11.96;68.00
53340;BME280;46212;50.258;19.062;2023-03-25T06:54:03;97571.00;;;11.89;68.61
53340;BME280;46212;50.258;19.062;2023-03-25T06:56:29;97581.94;;;12.04;68.98
53340;BME280;46212;50.258;19.062;2023-03-25T06:58:55;97570.69;;;12.13;68.52
53340;BME280;46212;50.258;19.062;2023-03-25T07:01:20;97571.81;;;12.27;67.71
53340;BME280;46212;50.258;19.062;2023-03-25T07:03:45;97573.38;;;12.33;67.31
53340;BME280;46212;50.258;19.062;2023-03-25T07:06:21;97580.50;;;12.45;66.30
53340;BME280;46212;50.258;19.062;2023-03-25T07:08:48;97570.94;;;12.46;66.62
53340;BME280;46212;50.258;19.062;2023-03-25T07:11:15;97561.91;;;12.51;65.73
53340;BME280;46212;50.258;19.062;2023-03-25T07:13:41;97562.16;;;12.48;66.18
53340;BME280;46212;50.258;19.062;2023-03-25T07:16:07;97565.94;;;12.50;65.74
53340;BME280;46212;50.258;19.062;2023-03-25T07:18:33;97560.63;;;12.47;65.82
53340;BME280;46212;50.258;19.062;2023-03-25T07:20:59;97556.63;;;12.53;66.54
53340;BME280;46212;50.258;19.062;2023-03-25T07:23:24;97541.56;;;12.60;66.46
53340;BME280;46212;50.258;19.062;2023-03-25T07:25:50;97544.22;;;12.80;65.94
53340;BME280;46212;50.258;19.062;2023-03-25T07:28:16;97543.78;;;12.98;65.85
53340;BME280;46212;50.258;19.062;2023-03-25T07:30:42;97537.25;;;13.01;65.72
53340;BME280;46212;50.258;19.062;2023-03-25T07:33:07;97533.28;;;13.13;65.97
53340;BME280;46212;50.258;19.062;2023-03-25T07:35:33;97532.28;;;13.16;66.12
53340;BME280;46212;50.258;19.062;2023-03-25T07:37:58;97523.31;;;13.44;64.03
53340;BME280;46212;50.258;19.062;2023-03-25T07:40:23;97526.59;;;13.59;63.68
53340;BME280;46212;50.258;19.062;2023-03-25T07:42:49;97523.84;;;13.70;63.38
53340;BME280;46212;50.258;19.062;2023-03-25T07:45:15;97524.59;;;13.70;62.43
53340;BME280;46212;50.258;19.062;2023-03-25T07:47:40;97516.53;;;13.78;62.64
53340;BME280;46212;50.258;19.062;2023-03-25T07:50:06;97518.06;;;13.79;62.69
53340;BME280;46212;50.258;19.062;2023-03-25T07:52:32;97512.25;;;13.77;61.86
53340;BME280;46212;50.258;19.062;2023-03-25T07:54:57;97522.59;;;13.71;60.38
53340;BME280;46212;50.258;19.062;2023-03-25T07:57:24;97514.00;;;13.58;58.72
53340;BME280;46212;50.258;19.062;2023-03-25T07:59:50;97509.97;;;13.59;59.49
53340;BME280;46212;50.258;19.062;2023-03-25T08:02:15;97510.44;;;13.52;59.48
53340;BME280;46212;50.258;19.062;2023-03-25T08:04:40;97512.69;;;13.37;60.08
53340;BME280;46212;50.258;19.062;2023-03-25T08:07:06;97518.19;;;13.20;60.42
53340;BME280;46212;50.258;19.062;2023-03-25T08:09:32;97519.19;;;13.11;60.83
53340;BME280;46212;50.258;19.062;2023-03-25T08:11:58;97520.06;;;12.92;60.24
53340;BME280;46212;50.258;19.062;2023-03-25T08:14:23;97524.59;;;12.89;59.94
53340;BME280;46212;50.258;19.062;2023-03-25T08:16:48;97514.06;;;13.04;60.27
53340;BME280;46212;50.258;19.062;2023-03-25T08:19:14;97512.63;;;13.09;60.16
53340;BME280;46212;50.258;19.062;2023-03-25T08:21:40;97522.72;;;13.23;60.20
53340;BME280;46212;50.258;19.062;2023-03-25T08:24:05;97511.16;;;13.30;59.28
53340;BME280;46212;50.258;19.062;2023-03-25T08:26:32;97510.16;;;13.27;58.27
53340;BME280;46212;50.258;19.062;2023-03-25T08:28:59;97507.38;;;13.33;57.51
53340;BME280;46212;50.258;19.062;2023-03-25T08:31:28;97506.66;;;13.55;56.91
53340;BME280;46212;50.258;19.062;2023-03-25T08:33:58;97513.22;;;13.57;57.26
53340;BME280;46212;50.258;19.062;2023-03-25T08:36:24;97518.81;;;13.63;57.83
53340;BME280;46212;50.258;19.062;2023-03-25T08:38:50;97521.84;;;13.76;57.07
53340;BME280;46212;50.258;19.062;2023-03-25T08:41:16;97512.25;;;13.71;57.24
53340;BME280;46212;50.258;19.062;2023-03-25T08:43:42;97525.63;;;13.78;56.02
53340;BME280;46212;50.258;19.062;2023-03-25T08:46:08;97514.00;;;13.80;56.30
53340;BME280;46212;50.258;19.062;2023-03-25T08:48:33;97515.25;;;13.73;56.65
53340;BME280;46212;50.258;19.062;2023-03-25T08:50:59;97504.94;;;13.63;57.28
53340;BME280;46212;50.258;19.062;2023-03-25T08:53:25;97496.09;;;13.64;57.99
53340;BME280;46212;50.258;19.062;2023-03-25T08:55:55;97509.22;;;13.86;57.65
53340;BME280;46212;50.258;19.062;2023-03-25T08:58:21;97512.75;;;13.92;56.39
53340;BME280;46212;50.258;19.062;2023-03-25T09:00:47;97502.91;;;13.97;56.95
53340;BME280;46212;50.258;19.062;2023-03-25T09:03:13;97523.38;;;14.10;56.54
53340;BME280;46212;50.258;19.062;2023-03-25T09:05:38;97500.38;;;14.10;56.70
53340;BME280;46212;50.258;19.062;2023-03-25T09:08:04;97496.34;;;14.05;57.48
53340;BME280;46212;50.258;19.062;2023-03-25T09:10:30;97504.94;;;14.07;56.63
53340;BME280;46212;50.258;19.062;2023-03-25T09:12:56;97500.38;;;14.15;55.16
53340;BME280;46212;50.258;19.062;2023-03-25T09:15:21;97502.41;;;14.09;54.88
53340;BME280;46212;50.258;19.062;2023-03-25T09:17:47;97504.66;;;14.22;55.57
53340;BME280;46212;50.258;19.062;2023-03-25T09:20:13;97507.19;;;14.14;55.90
53340;BME280;46212;50.258;19.062;2023-03-25T09:22:39;97495.84;;;14.07;54.90
53340;BME280;46212;50.258;19.062;2023-03-25T09:25:06;97498.38;;;14.10;55.57
53340;BME280;46212;50.258;19.062;2023-03-25T09:27:32;97495.06;;;14.34;55.51
53340;BME280;46212;50.258;19.062;2023-03-25T09:29:57;97493.06;;;14.46;55.44
53340;BME280;46212;50.258;19.062;2023-03-25T09:32:23;97493.81;;;14.41;55.39
53340;BME280;46212;50.258;19.062;2023-03-25T09:34:48;97490.75;;;14.55;54.70
53340;BME280;46212;50.258;19.062;2023-03-25T09:37:14;97495.22;;;14.75;54.36
53340;BME280;46212;50.258;19.062;2023-03-25T09:39:40;97487.06;;;14.94;54.43
53340;BME280;46212;50.258;19.062;2023-03-25T09:47:34;97474.41;;;15.50;52.39
53340;BME280;46212;50.258;19.062;2023-03-25T09:50:03;97469.41;;;15.37;51.49
53340;BME280;46212;50.258;19.062;2023-03-25T09:52:40;97480.63;;;15.21;52.68
53340;BME280;46212;50.258;19.062;2023-03-25T09:55:12;97469.53;;;15.15;52.91
53340;BME280;46212;50.258;19.062;2023-03-25T09:57:45;97468.28;;;15.11;51.95
53340;BME280;46212;50.258;19.062;2023-03-25T10:00:17;97472.59;;;15.12;52.38
53340;BME280;46212;50.258;19.062;2023-03-25T10:02:55;97449.41;;;14.98;52.00
53340;BME280;46212;50.258;19.062;2023-03-25T10:05:38;97455.97;;;14.95;53.47
53340;BME280;46212;50.258;19.062;2023-03-25T10:14:10;97451.31;;;14.68;55.85
53340;BME280;46212;50.258;19.062;2023-03-25T10:17:08;97448.34;;;14.44;57.12
53340;BME280;46212;50.258;19.062;2023-03-25T10:22:17;97434.00;;;14.12;59.59
53340;BME280;46212;50.258;19.062;2023-03-25T10:24:49;97434.78;;;14.01;59.87
53340;BME280;46212;50.258;19.062;2023-03-25T10:27:38;97438.34;;;13.85;60.47
53340;BME280;46212;50.258;19.062;2023-03-25T10:32:43;97473.59;;;13.23;64.17
53340;BME280;46212;50.258;19.062;2023-03-25T10:35:19;97472.94;;;12.81;66.89
53340;BME280;46212;50.258;19.062;2023-03-25T10:37:48;97477.78;;;12.43;67.86
53340;BME280;46212;50.258;19.062;2023-03-25T10:40:37;97474.50;;;12.39;68.46
53340;BME280;46212;50.258;19.062;2023-03-25T10:45:48;97481.41;;;12.60;69.70
53340;BME280;46212;50.258;19.062;2023-03-25T10:48:24;97459.22;;;12.49;69.88
53340;BME280;46212;50.258;19.062;2023-03-25T10:50:59;97459.44;;;12.46;69.48
53340;BME280;46212;50.258;19.062;2023-03-25T10:53:27;97459.00;;;12.64;69.34
53340;BME280;46212;50.258;19.062;2023-03-25T10:56:04;97447.50;;;12.82;69.21
53340;BME280;46212;50.258;19.062;2023-03-25T10:58:33;97449.09;;;13.05;68.37
53340;BME280;46212;50.258;19.062;2023-03-25T11:00:59;97440.06;;;13.32;67.30
53340;BME280;46212;50.258;19.062;2023-03-25T11:03:32;97434.56;;;13.60;65.45
53340;BME280;46212;50.258;19.062;2023-03-25T11:05:58;97426.47;;;13.90;62.64
53340;BME280;46212;50.258;19.062;2023-03-25T11:08:24;97423.59;;;14.40;63.59
53340;BME280;46212;50.258;19.062;2023-03-25T11:10:50;97419.97;;;14.67;58.20
53340;BME280;46212;50.258;19.062;2023-03-25T11:13:24;97420.38;;;14.88;59.70
53340;BME280;46212;50.258;19.062;2023-03-25T11:15:52;97418.72;;;15.15;57.77
53340;BME280;46212;50.258;19.062;2023-03-25T11:18:36;97426.22;;;15.25;57.44
53340;BME280;46212;50.258;19.062;2023-03-25T11:21:12;97418.63;;;15.31;56.96
53340;BME280;46212;50.258;19.062;2023-03-25T11:23:46;97406.25;;;15.27;57.03
53340;BME280;46212;50.258;19.062;2023-03-25T11:26:26;97410.19;;;15.42;51.88
53340;BME280;46212;50.258;19.062;2023-03-25T11:29:18;97395.16;;;15.86;49.77
53340;BME280;46212;50.258;19.062;2023-03-25T11:32:03;97411.66;;;16.09;49.26
53340;BME280;46212;50.258;19.062;2023-03-25T11:34:30;97403.28;;;16.09;49.43
53340;BME280;46212;50.258;19.062;2023-03-25T11:37:01;97394.84;;;15.66;50.61
53340;BME280;46212;50.258;19.062;2023-03-25T11:39:38;97394.25;;;15.43;51.92
53340;BME280;46212;50.258;19.062;2023-03-25T11:44:38;97395.13;;;15.27;52.80
53340;BME280;46212;50.258;19.062;2023-03-25T11:47:06;97379.47;;;15.24;52.94
53340;BME280;46212;50.258;19.062;2023-03-25T11:49:35;97389.56;;;15.27;51.07
53340;BME280;46212;50.258;19.062;2023-03-25T11:52:14;97393.59;;;15.31;51.26
53340;BME280;46212;50.258;19.062;2023-03-25T11:54:43;97402.25;;;15.17;51.98
53340;BME280;46212;50.258;19.062;2023-03-25T11:57:17;97391.53;;;15.32;51.75
53340;BME280;46212;50.258;19.062;2023-03-25T11:59:46;97390.31;;;15.27;51.68
53340;BME280;46212;50.258;19.062;2023-03-25T12:02:22;97394.44;;;15.56;51.94
53340;BME280;46212;50.258;19.062;2023-03-25T12:05:02;97412.19;;;15.77;50.38
53340;BME280;46212;50.258;19.062;2023-03-25T12:07:48;97389.94;;;15.77;50.22
53340;BME280;46212;50.258;19.062;2023-03-25T12:21:44;97396.03;;;16.24;46.49
53340;BME280;46212;50.258;19.062;2023-03-25T12:35:29;97411.56;;;14.10;54.67
53340;BME280;46212;50.258;19.062;2023-03-25T12:38:27;97416.38;;;14.04;54.01
53340;BME280;46212;50.258;19.062;2023-03-25T12:41:30;97423.66;;;14.07;51.80
53340;BME280;46212;50.258;19.062;2023-03-25T12:44:29;97423.59;;;14.40;50.14
53340;BME280;46212;50.258;19.062;2023-03-25T12:47:07;97419.06;;;15.35;49.17
53340;BME280;46212;50.258;19.062;2023-03-25T12:52:52;97398.47;;;16.09;45.68
53340;BME280;46212;50.258;19.062;2023-03-25T13:00:46;97407.69;;;20.97;36.37
53340;BME280;46212;50.258;19.062;2023-03-25T13:06:41;97398.56;;;23.49;32.65
53340;BME280;46212;50.258;19.062;2023-03-25T13:09:36;97411.31;;;24.07;31.33
53340;BME280;46212;50.258;19.062;2023-03-25T13:14:49;97414.41;;;19.40;38.19
53340;BME280;46212;50.258;19.062;2023-03-25T13:17:56;97394.28;;;24.22;30.27
53340;BME280;46212;50.258;19.062;2023-03-25T13:20:27;97392.16;;;27.00;26.41
53340;BME280;46212;50.258;19.062;2023-03-25T13:23:00;97385.75;;;28.18;25.04
53340;BME280;46212;50.258;19.062;2023-03-25T13:25:34;97381.44;;;28.81;23.88
53340;BME280;46212;50.258;19.062;2023-03-25T13:28:10;97384.81;;;29.22;22.84
53340;BME280;46212;50.258;19.062;2023-03-25T13:30:39;97379.78;;;27.74;24.62
53340;BME280;46212;50.258;19.062;2023-03-25T13:33:19;97373.78;;;28.62;23.54
53340;BME280;46212;50.258;19.062;2023-03-25T13:36:07;97375.69;;;29.79;22.33
53340;BME280;46212;50.258;19.062;2023-03-25T13:38:48;97397.69;;;29.67;21.71
53340;BME280;46212;50.258;19.062;2023-03-25T13:41:37;97379.03;;;27.23;24.53
53340;BME280;46212;50.258;19.062;2023-03-25T13:44:27;97366.53;;;26.88;25.42
53340;BME280;46212;50.258;19.062;2023-03-25T13:47:16;97370.06;;;22.97;30.44
53340;BME280;46212;50.258;19.062;2023-03-25T13:49:50;97371.03;;;21.03;36.70
53340;BME280;46212;50.258;19.062;2023-03-25T13:52:17;97377.19;;;20.22;36.54
53340;BME280;46212;50.258;19.062;2023-03-25T13:54:53;97369.03;;;19.41;36.15
53340;BME280;46212;50.258;19.062;2023-03-25T14:03:10;97365.22;;;17.66;37.59
53340;BME280;46212;50.258;19.062;2023-03-25T14:11:19;97365.13;;;17.40;38.03
53340;BME280;46212;50.258;19.062;2023-03-25T14:13:49;97358.94;;;17.28;38.02
53340;BME280;46212;50.258;19.062;2023-03-25T14:16:19;97352.38;;;16.75;38.78
53340;BME280;46212;50.258;19.062;2023-03-25T14:18:58;97363.72;;;16.59;41.17
53340;BME280;46212;50.258;19.062;2023-03-25T14:21:27;97365.88;;;16.28;40.57
53340;BME280;46212;50.258;19.062;2023-03-25T14:24:09;97360.16;;;16.39;40.66
53340;BME280;46212;50.258;19.062;2023-03-25T14:26:41;97375.66;;;15.86;40.61
53340;BME280;46212;50.258;19.062;2023-03-25T14:29:31;97379.47;;;15.59;41.11
53340;BME280;46212;50.258;19.062;2023-03-25T14:34:48;97387.97;;;15.02;42.77
53340;BME280;46212;50.258;19.062;2023-03-25T14:37:17;97380.69;;;14.93;47.01
53340;BME280;46212;50.258;19.062;2023-03-25T14:39:50;97370.03;;;14.97;44.54
53340;BME280;46212;50.258;19.062;2023-03-25T14:42:27;97379.66;;;14.96;44.42
53340;BME280;46212;50.258;19.062;2023-03-25T14:44:53;97380.59;;;15.04;44.02
53340;BME280;46212;50.258;19.062;2023-03-25T14:47:51;97379.56;;;15.07;42.23
53340;BME280;46212;50.258;19.062;2023-03-25T14:52:49;97375.25;;;15.77;40.02
53340;BME280;46212;50.258;19.062;2023-03-25T14:55:24;97387.13;;;16.07;38.98
53340;BME280;46212;50.258;19.062;2023-03-25T14:57:57;97367.56;;;16.13;38.25
53340;BME280;46212;50.258;19.062;2023-03-25T15:00:39;97382.78;;;16.30;38.21
53340;BME280;46212;50.258;19.062;2023-03-25T15:03:10;97403.09;;;15.77;39.43
53340;BME280;46212;50.258;19.062;2023-03-25T15:05:37;97387.69;;;15.76;39.88
53340;BME280;46212;50.258;19.062;2023-03-25T15:10:31;97394.16;;;16.14;39.64
53340;BME280;46212;50.258;19.062;2023-03-25T15:13:25;97399.38;;;15.69;40.46